createdAt,value
2024-03-16T00:01:21.380Z,3.50
2024-03-16T00:03:48.005Z,3.80
2024-03-16T00:06:14.572Z,3.70
2024-03-16T00:08:41.238Z,4.07
2024-03-16T00:11:07.991Z,3.50
2024-03-16T00:13:35.627Z,3.10
2024-03-16T00:16:02.312Z,2.95
2024-03-16T00:18:28.977Z,3.42
2024-03-16T00:20:56.399Z,3.58
2024-03-16T00:23:23.018Z,3.63
2024-03-16T00:25:49.651Z,3.93
2024-03-16T00:28:17.282Z,3.13
2024-03-16T00:30:44.404Z,3.05
2024-03-16T00:33:11.173Z,3.30
2024-03-16T00:35:37.669Z,3.13
2024-03-16T00:38:04.371Z,3.20
2024-03-16T00:40:31.126Z,3.55
2024-03-16T00:42:57.934Z,3.67
2024-03-16T00:45:24.706Z,3.88
2024-03-16T00:47:51.348Z,3.50
2024-03-16T00:50:18.145Z,3.80
2024-03-16T00:52:44.769Z,4.55
2024-03-16T00:55:11.523Z,3.95
2024-03-16T00:57:39.119Z,3.85
2024-03-16T01:00:09.529Z,3.70
2024-03-16T01:02:36.280Z,3.90
2024-03-16T01:05:02.891Z,3.28
2024-03-16T01:07:29.501Z,3.22
2024-03-16T01:09:56.856Z,3.83
2024-03-16T01:12:23.620Z,3.30
2024-03-16T01:14:50.319Z,3.47
2024-03-16T01:17:16.988Z,3.33
2024-03-16T01:19:45.436Z,3.78
2024-03-16T01:22:12.301Z,4.00
2024-03-16T01:24:38.945Z,2.85
2024-03-16T01:27:05.676Z,3.20
2024-03-16T01:29:33.951Z,2.60
2024-03-16T01:32:00.770Z,3.63
2024-03-16T01:34:27.360Z,4.28
2024-03-16T01:36:54.226Z,3.38
2024-03-16T01:39:20.805Z,4.17
2024-03-16T01:41:47.384Z,3.50
2024-03-16T01:44:14.094Z,4.07
2024-03-16T01:46:42.613Z,3.60
2024-03-16T01:49:10.612Z,4.00
2024-03-16T01:51:38.775Z,3.07
2024-03-16T01:54:06.759Z,3.55
2024-03-16T01:56:34.158Z,3.20
2024-03-16T01:59:01.132Z,3.13
2024-03-16T02:01:27.860Z,3.70
2024-03-16T02:03:55.466Z,3.50
2024-03-16T02:06:22.165Z,3.22
2024-03-16T02:08:48.683Z,3.28
2024-03-16T02:11:15.407Z,3.40
2024-03-16T02:13:41.968Z,3.92
2024-03-16T02:16:08.637Z,3.73
2024-03-16T02:18:35.310Z,3.25
2024-03-16T02:21:04.480Z,3.10
2024-03-16T02:23:32.655Z,3.05
2024-03-16T02:25:59.719Z,3.70
2024-03-16T02:28:26.803Z,3.10
2024-03-16T02:30:53.635Z,3.88
2024-03-16T02:33:21.306Z,2.90
2024-03-16T02:35:48.086Z,2.85
2024-03-16T02:38:15.992Z,3.20
2024-03-16T02:40:43.635Z,3.60
2024-03-16T02:43:10.844Z,3.42
2024-03-16T02:45:37.601Z,3.30
2024-03-16T02:48:06.745Z,2.97
2024-03-16T02:50:33.431Z,3.72
2024-03-16T02:53:00.957Z,3.67
2024-03-16T02:55:27.522Z,3.80
2024-03-16T02:57:55.011Z,3.25
2024-03-16T03:00:22.891Z,2.72
2024-03-16T03:02:49.587Z,3.17
2024-03-16T03:05:20.833Z,2.60
2024-03-16T03:07:47.492Z,3.30
2024-03-16T03:10:14.094Z,3.30
2024-03-16T03:12:40.726Z,3.00
2024-03-16T03:15:08.040Z,3.25
2024-03-16T03:17:34.604Z,3.00
2024-03-16T03:20:01.242Z,3.38
2024-03-16T03:22:28.028Z,2.75
2024-03-16T03:24:54.628Z,2.88
2024-03-16T03:27:21.797Z,3.30
2024-03-16T03:29:48.368Z,3.60
2024-03-16T03:32:15.586Z,3.00
2024-03-16T03:34:42.114Z,2.60
2024-03-16T03:37:09.302Z,3.10
2024-03-16T03:39:35.941Z,2.90
2024-03-16T03:42:02.540Z,3.20
2024-03-16T03:47:08.636Z,2.53
2024-03-16T03:49:36.836Z,2.33
2024-03-16T03:52:06.613Z,2.13
2024-03-16T03:54:34.592Z,2.50
2024-03-16T03:57:01.452Z,3.33
2024-03-16T03:59:28.037Z,2.20
2024-03-16T04:01:54.712Z,2.50
2024-03-16T04:04:21.360Z,2.45
2024-03-16T04:06:48.200Z,2.53
2024-03-16T04:09:15.684Z,2.70
2024-03-16T04:11:42.649Z,2.60
2024-03-16T04:14:09.229Z,1.98
2024-03-16T04:16:35.947Z,2.33
2024-03-16T04:19:02.907Z,2.10
2024-03-16T04:21:29.842Z,2.33
2024-03-16T04:23:56.646Z,2.38
2024-03-16T04:26:24.192Z,2.40
2024-03-16T04:28:51.306Z,2.63
2024-03-16T04:31:18.460Z,2.20
2024-03-16T04:33:45.339Z,2.60
2024-03-16T04:36:13.803Z,2.30
2024-03-16T04:38:40.680Z,1.80
2024-03-16T04:41:07.250Z,2.08
2024-03-16T04:43:36.646Z,1.77
2024-03-16T04:46:03.383Z,1.90
2024-03-16T04:48:29.982Z,2.17
2024-03-16T04:50:57.347Z,2.30
2024-03-16T04:53:24.191Z,2.30
2024-03-16T04:55:53.500Z,2.47
2024-03-16T04:58:20.171Z,2.30
2024-03-16T05:00:46.928Z,2.00
2024-03-16T05:03:14.006Z,2.55
2024-03-16T05:05:40.660Z,2.63
2024-03-16T05:08:08.413Z,2.60
2024-03-16T05:10:35.172Z,2.55
2024-03-16T05:13:01.808Z,2.42
2024-03-16T05:15:28.593Z,2.00
2024-03-16T05:17:55.267Z,2.10
2024-03-16T05:20:22.830Z,2.00
2024-03-16T05:22:49.711Z,2.20
2024-03-16T05:25:17.431Z,1.98
2024-03-16T05:27:44.343Z,2.25
2024-03-16T05:30:12.692Z,2.42
2024-03-16T05:32:39.435Z,2.20
2024-03-16T05:35:09.073Z,2.28
2024-03-16T05:37:36.924Z,2.10
2024-03-16T05:40:04.326Z,2.15
2024-03-16T05:42:32.174Z,2.00
2024-03-16T05:45:00.463Z,1.83
2024-03-16T05:47:27.116Z,2.17
2024-03-16T05:49:53.734Z,1.75
2024-03-16T05:52:20.552Z,2.40
2024-03-16T05:54:47.146Z,1.63
2024-03-16T05:57:13.831Z,1.73
2024-03-16T05:59:40.542Z,1.98
2024-03-16T06:02:07.246Z,1.63
2024-03-16T06:04:34.310Z,1.70
2024-03-16T06:07:01.021Z,2.05
2024-03-16T06:09:27.627Z,1.93
2024-03-16T06:11:54.377Z,1.60
2024-03-16T06:14:20.984Z,2.22
2024-03-16T06:16:47.631Z,1.80
2024-03-16T06:19:14.331Z,2.03
2024-03-16T06:21:41.121Z,1.87
2024-03-16T06:24:08.774Z,1.70
2024-03-16T06:26:38.609Z,1.80
2024-03-16T06:29:10.052Z,1.80
2024-03-16T06:31:39.008Z,2.20
2024-03-16T06:34:08.778Z,2.43
2024-03-16T06:36:36.903Z,2.20
2024-03-16T06:39:12.781Z,1.95
2024-03-16T06:41:39.931Z,1.90
2024-03-16T06:44:06.562Z,1.98
2024-03-16T06:46:33.589Z,2.30
2024-03-16T06:49:06.570Z,2.25
2024-03-16T06:51:34.147Z,1.85
2024-03-16T06:54:00.838Z,1.80
2024-03-16T06:56:27.396Z,1.92
2024-03-16T06:58:54.070Z,1.87
2024-03-16T07:01:22.031Z,1.52
2024-03-16T07:03:48.997Z,1.85
2024-03-16T07:06:15.665Z,2.35
2024-03-16T07:08:42.269Z,1.70
2024-03-16T07:11:09.013Z,2.37
2024-03-16T07:13:36.511Z,2.40
2024-03-16T07:16:03.336Z,1.60
2024-03-16T07:18:34.284Z,2.10
2024-03-16T07:21:00.982Z,2.00
2024-03-16T07:23:27.958Z,1.90
2024-03-16T07:25:54.557Z,2.00
2024-03-16T07:28:21.164Z,2.25
2024-03-16T07:30:47.758Z,2.17
2024-03-16T07:33:15.191Z,2.15
2024-03-16T07:35:42.590Z,1.90
2024-03-16T07:38:09.496Z,2.00
2024-03-16T07:40:36.191Z,2.33
2024-03-16T07:43:03.127Z,1.90
2024-03-16T07:45:30.029Z,1.83
2024-03-16T07:47:56.793Z,1.90
2024-03-16T07:50:23.586Z,2.00
2024-03-16T07:52:50.327Z,2.22
2024-03-16T07:55:17.055Z,2.15
2024-03-16T07:57:43.839Z,2.38
2024-03-16T08:00:12.344Z,2.50
2024-03-16T08:02:39.316Z,2.28
2024-03-16T08:05:06.246Z,2.00
2024-03-16T08:07:32.942Z,2.08
2024-03-16T08:09:59.601Z,2.13
2024-03-16T08:12:26.670Z,1.90
2024-03-16T08:14:53.916Z,2.25
2024-03-16T08:17:20.860Z,2.20
2024-03-16T08:19:47.430Z,2.67
2024-03-16T08:22:14.329Z,1.88
2024-03-16T08:24:41.247Z,2.60
2024-03-16T08:27:07.849Z,2.28
2024-03-16T08:29:34.458Z,2.25
2024-03-16T08:32:01.052Z,2.42
2024-03-16T08:34:27.726Z,2.47
2024-03-16T08:36:54.437Z,2.93
2024-03-16T08:39:21.685Z,2.85
2024-03-16T08:41:49.285Z,2.20
2024-03-16T08:44:15.904Z,2.15
2024-03-16T08:46:42.528Z,2.25
2024-03-16T08:49:09.173Z,2.33
2024-03-16T08:51:36.197Z,2.53
2024-03-16T08:54:03.132Z,2.63
2024-03-16T08:56:30.015Z,2.58
2024-03-16T08:58:57.615Z,2.30
2024-03-16T09:01:24.755Z,2.10
2024-03-16T09:03:51.635Z,2.25
2024-03-16T09:06:18.392Z,2.15
2024-03-16T09:08:45.046Z,2.60
2024-03-16T09:11:12.615Z,2.40
2024-03-16T09:13:39.270Z,2.90
2024-03-16T09:16:07.448Z,2.15
2024-03-16T09:18:35.480Z,2.20
2024-03-16T09:21:03.828Z,2.45
2024-03-16T09:23:31.084Z,2.10
2024-03-16T09:25:57.979Z,2.70
2024-03-16T09:28:24.986Z,2.70
2024-03-16T09:30:55.017Z,3.00
2024-03-16T09:33:23.169Z,4.07
2024-03-16T09:35:53.542Z,3.90
2024-03-16T09:38:20.208Z,3.50
2024-03-16T09:40:53.168Z,3.10
